sensor_id;sensor_type;location;lat;lon;timestamp;P1;durP1;ratioP1;P2;durP2;ratioP2
17361;SDS011;8798;51.938;4.348;2022-11-20T00:01:03;11.00;;;5.33;;
17361;SDS011;8798;51.938;4.348;2022-11-20T00:03:33;9.07;;;4.87;;
17361;SDS011;8798;51.938;4.348;2022-11-20T00:06:02;8.77;;;4.70;;
17361;SDS011;8798;51.938;4.348;2022-11-20T00:08:30;7.73;;;4.80;;
17361;SDS011;8798;51.938;4.348;2022-11-20T00:11:01;9.53;;;4.37;;
17361;SDS011;8798;51.938;4.348;2022-11-20T00:13:30;10.40;;;4.93;;
17361;SDS011;8798;51.938;4.348;2022-11-20T00:15:58;8.20;;;4.47;;
17361;SDS011;8798;51.938;4.348;2022-11-20T00:18:28;9.37;;;4.87;;
17361;SDS011;8798;51.938;4.348;2022-11-20T00:21:00;9.57;;;4.73;;
17361;SDS011;8798;51.938;4.348;2022-11-20T00:23:28;8.27;;;4.60;;
17361;SDS011;8798;51.938;4.348;2022-11-20T00:25:56;9.83;;;5.50;;
17361;SDS011;8798;51.938;4.348;2022-11-20T00:28:24;7.93;;;4.67;;
17361;SDS011;8798;51.938;4.348;2022-11-20T00:30:51;11.00;;;5.40;;
17361;SDS011;8798;51.938;4.348;2022-11-20T00:33:19;9.90;;;4.90;;
17361;SDS011;8798;51.938;4.348;2022-11-20T00:35:48;10.93;;;5.17;;
17361;SDS011;8798;51.938;4.348;2022-11-20T00:38:16;8.17;;;4.93;;
17361;SDS011;8798;51.938;4.348;2022-11-20T00:40:44;7.90;;;4.90;;
17361;SDS011;8798;51.938;4.348;2022-11-20T00:43:19;10.23;;;5.03;;
17361;SDS011;8798;51.938;4.348;2022-11-20T00:45:47;8.30;;;4.33;;
17361;SDS011;8798;51.938;4.348;2022-11-20T00:48:15;7.67;;;4.77;;
17361;SDS011;8798;51.938;4.348;2022-11-20T00:50:43;8.20;;;5.00;;
17361;SDS011;8798;51.938;4.348;2022-11-20T00:53:12;8.90;;;4.70;;
17361;SDS011;8798;51.938;4.348;2022-11-20T00:55:40;8.87;;;4.27;;
17361;SDS011;8798;51.938;4.348;2022-11-20T00:58:07;9.83;;;4.73;;
17361;SDS011;8798;51.938;4.348;2022-11-20T01:00:39;8.73;;;4.87;;
17361;SDS011;8798;51.938;4.348;2022-11-20T01:03:07;7.83;;;4.53;;
17361;SDS011;8798;51.938;4.348;2022-11-20T01:05:35;8.47;;;4.30;;
17361;SDS011;8798;51.938;4.348;2022-11-20T01:08:03;8.80;;;4.57;;
17361;SDS011;8798;51.938;4.348;2022-11-20T01:10:33;8.50;;;4.90;;
17361;SDS011;8798;51.938;4.348;2022-11-20T01:13:01;9.77;;;5.17;;
17361;SDS011;8798;51.938;4.348;2022-11-20T01:15:51;8.53;;;4.60;;
17361;SDS011;8798;51.938;4.348;2022-11-20T01:18:19;14.40;;;5.90;;
17361;SDS011;8798;51.938;4.348;2022-11-20T01:20:47;9.17;;;5.30;;
17361;SDS011;8798;51.938;4.348;2022-11-20T01:23:14;9.70;;;5.30;;
17361;SDS011;8798;51.938;4.348;2022-11-20T01:25:44;9.10;;;4.93;;
17361;SDS011;8798;51.938;4.348;2022-11-20T01:28:11;7.33;;;4.73;;
17361;SDS011;8798;51.938;4.348;2022-11-20T01:30:39;10.87;;;5.53;;
17361;SDS011;8798;51.938;4.348;2022-11-20T01:33:07;9.97;;;5.57;;
17361;SDS011;8798;51.938;4.348;2022-11-20T01:35:35;8.87;;;4.93;;
17361;SDS011;8798;51.938;4.348;2022-11-20T01:38:03;11.10;;;5.87;;
17361;SDS011;8798;51.938;4.348;2022-11-20T01:40:30;9.87;;;4.83;;
17361;SDS011;8798;51.938;4.348;2022-11-20T01:43:12;9.57;;;5.27;;
17361;SDS011;8798;51.938;4.348;2022-11-20T01:46:02;7.53;;;4.60;;
17361;SDS011;8798;51.938;4.348;2022-11-20T01:48:34;10.93;;;5.27;;
17361;SDS011;8798;51.938;4.348;2022-11-20T01:51:06;8.60;;;4.90;;
17361;SDS011;8798;51.938;4.348;2022-11-20T01:53:40;9.97;;;5.20;;
17361;SDS011;8798;51.938;4.348;2022-11-20T01:56:09;7.70;;;4.73;;
17361;SDS011;8798;51.938;4.348;2022-11-20T01:58:42;10.37;;;5.00;;
17361;SDS011;8798;51.938;4.348;2022-11-20T02:01:14;8.57;;;4.80;;
17361;SDS011;8798;51.938;4.348;2022-11-20T02:03:43;8.83;;;4.70;;
17361;SDS011;8798;51.938;4.348;2022-11-20T02:06:12;8.03;;;4.70;;
17361;SDS011;8798;51.938;4.348;2022-11-20T02:08:45;9.03;;;5.43;;
17361;SDS011;8798;51.938;4.348;2022-11-20T02:11:13;8.83;;;5.10;;
17361;SDS011;8798;51.938;4.348;2022-11-20T02:13:42;7.57;;;4.33;;
17361;SDS011;8798;51.938;4.348;2022-11-20T02:16:14;10.37;;;4.60;;
17361;SDS011;8798;51.938;4.348;2022-11-20T02:18:44;6.97;;;4.40;;
17361;SDS011;8798;51.938;4.348;2022-11-20T02:21:17;10.63;;;5.00;;
17361;SDS011;8798;51.938;4.348;2022-11-20T02:23:59;8.23;;;4.67;;
17361;SDS011;8798;51.938;4.348;2022-11-20T02:26:30;8.73;;;4.53;;
17361;SDS011;8798;51.938;4.348;2022-11-20T02:29:00;8.00;;;4.40;;
17361;SDS011;8798;51.938;4.348;2022-11-20T02:31:33;9.33;;;4.97;;
17361;SDS011;8798;51.938;4.348;2022-11-20T02:34:03;7.30;;;4.17;;
17361;SDS011;8798;51.938;4.348;2022-11-20T02:36:32;7.20;;;4.50;;
17361;SDS011;8798;51.938;4.348;2022-11-20T02:39:03;8.93;;;5.03;;
17361;SDS011;8798;51.938;4.348;2022-11-20T02:41:33;6.77;;;4.07;;
17361;SDS011;8798;51.938;4.348;2022-11-20T02:44:02;8.43;;;4.57;;
17361;SDS011;8798;51.938;4.348;2022-11-20T02:46:31;8.97;;;4.53;;
17361;SDS011;8798;51.938;4.348;2022-11-20T02:49:00;8.53;;;4.40;;
17361;SDS011;8798;51.938;4.348;2022-11-20T02:51:29;9.73;;;4.57;;
17361;SDS011;8798;51.938;4.348;2022-11-20T02:53:57;8.43;;;4.40;;
17361;SDS011;8798;51.938;4.348;2022-11-20T02:56:27;8.07;;;4.70;;
17361;SDS011;8798;51.938;4.348;2022-11-20T02:58:55;7.90;;;4.83;;
17361;SDS011;8798;51.938;4.348;2022-11-20T03:01:22;9.23;;;4.90;;
17361;SDS011;8798;51.938;4.348;2022-11-20T03:03:50;8.30;;;4.40;;
17361;SDS011;8798;51.938;4.348;2022-11-20T03:06:20;8.80;;;4.47;;
17361;SDS011;8798;51.938;4.348;2022-11-20T03:08:48;8.27;;;4.63;;
17361;SDS011;8798;51.938;4.348;2022-11-20T03:11:16;9.70;;;3.90;;
17361;SDS011;8798;51.938;4.348;2022-11-20T03:13:46;8.97;;;4.87;;
17361;SDS011;8798;51.938;4.348;2022-11-20T03:16:14;8.90;;;4.60;;
17361;SDS011;8798;51.938;4.348;2022-11-20T03:18:43;7.13;;;4.57;;
17361;SDS011;8798;51.938;4.348;2022-11-20T03:21:12;8.03;;;4.47;;
17361;SDS011;8798;51.938;4.348;2022-11-20T03:23:40;11.03;;;4.63;;
17361;SDS011;8798;51.938;4.348;2022-11-20T03:26:09;8.23;;;4.47;;
17361;SDS011;8798;51.938;4.348;2022-11-20T03:28:38;8.73;;;4.80;;
17361;SDS011;8798;51.938;4.348;2022-11-20T03:31:09;7.43;;;4.33;;
17361;SDS011;8798;51.938;4.348;2022-11-20T03:33:38;8.00;;;4.47;;
17361;SDS011;8798;51.938;4.348;2022-11-20T03:36:07;8.30;;;4.57;;
17361;SDS011;8798;51.938;4.348;2022-11-20T03:38:37;8.20;;;4.57;;
17361;SDS011;8798;51.938;4.348;2022-11-20T03:41:06;9.70;;;4.47;;
17361;SDS011;8798;51.938;4.348;2022-11-20T03:43:35;10.33;;;5.07;;
17361;SDS011;8798;51.938;4.348;2022-11-20T03:46:04;7.20;;;4.30;;
17361;SDS011;8798;51.938;4.348;2022-11-20T03:48:34;9.60;;;4.43;;
17361;SDS011;8798;51.938;4.348;2022-11-20T03:51:06;9.80;;;4.77;;
17361;SDS011;8798;51.938;4.348;2022-11-20T03:53:35;8.30;;;4.20;;
17361;SDS011;8798;51.938;4.348;2022-11-20T03:56:03;7.87;;;4.47;;
17361;SDS011;8798;51.938;4.348;2022-11-20T03:58:32;8.77;;;4.70;;
17361;SDS011;8798;51.938;4.348;2022-11-20T04:01:04;7.60;;;3.97;;
17361;SDS011;8798;51.938;4.348;2022-11-20T04:03:35;7.90;;;4.43;;
17361;SDS011;8798;51.938;4.348;2022-11-20T04:06:04;7.27;;;4.50;;
17361;SDS011;8798;51.938;4.348;2022-11-20T04:08:33;9.60;;;4.70;;
17361;SDS011;8798;51.938;4.348;2022-11-20T04:11:10;7.23;;;4.37;;
17361;SDS011;8798;51.938;4.348;2022-11-20T04:13:39;8.10;;;4.63;;
17361;SDS011;8798;51.938;4.348;2022-11-20T04:16:08;12.57;;;5.33;;
17361;SDS011;8798;51.938;4.348;2022-11-20T04:18:38;8.30;;;4.87;;
17361;SDS011;8798;51.938;4.348;2022-11-20T04:21:06;10.23;;;5.33;;
17361;SDS011;8798;51.938;4.348;2022-11-20T04:23:34;9.20;;;4.77;;
17361;SDS011;8798;51.938;4.348;2022-11-20T04:26:02;9.10;;;4.77;;
17361;SDS011;8798;51.938;4.348;2022-11-20T04:28:31;8.40;;;4.27;;
17361;SDS011;8798;51.938;4.348;2022-11-20T04:31:02;8.90;;;4.53;;
17361;SDS011;8798;51.938;4.348;2022-11-20T04:33:31;9.37;;;4.93;;
17361;SDS011;8798;51.938;4.348;2022-11-20T04:36:05;7.63;;;4.00;;
17361;SDS011;8798;51.938;4.348;2022-11-20T04:38:34;9.70;;;5.07;;
17361;SDS011;8798;51.938;4.348;2022-11-20T04:41:03;7.00;;;4.03;;
17361;SDS011;8798;51.938;4.348;2022-11-20T04:43:32;9.07;;;5.10;;
17361;SDS011;8798;51.938;4.348;2022-11-20T04:46:00;9.00;;;5.27;;
17361;SDS011;8798;51.938;4.348;2022-11-20T04:48:29;8.80;;;4.87;;
17361;SDS011;8798;51.938;4.348;2022-11-20T04:50:57;8.07;;;4.00;;
17361;SDS011;8798;51.938;4.348;2022-11-20T04:53:31;9.20;;;4.93;;
17361;SDS011;8798;51.938;4.348;2022-11-20T04:55:59;10.63;;;4.83;;
17361;SDS011;8798;51.938;4.348;2022-11-20T04:58:27;9.80;;;4.97;;
17361;SDS011;8798;51.938;4.348;2022-11-20T05:01:00;8.03;;;4.83;;
17361;SDS011;8798;51.938;4.348;2022-11-20T05:03:29;9.30;;;4.80;;
17361;SDS011;8798;51.938;4.348;2022-11-20T05:05:59;8.20;;;4.77;;
17361;SDS011;8798;51.938;4.348;2022-11-20T05:08:28;9.00;;;5.50;;
17361;SDS011;8798;51.938;4.348;2022-11-20T05:11:00;8.43;;;4.53;;
17361;SDS011;8798;51.938;4.348;2022-11-20T05:13:29;7.60;;;4.27;;
17361;SDS011;8798;51.938;4.348;2022-11-20T05:16:00;9.70;;;4.60;;
17361;SDS011;8798;51.938;4.348;2022-11-20T05:18:29;7.03;;;4.07;;
17361;SDS011;8798;51.938;4.348;2022-11-20T05:20:57;8.03;;;4.23;;
17361;SDS011;8798;51.938;4.348;2022-11-20T05:23:26;8.60;;;4.63;;
17361;SDS011;8798;51.938;4.348;2022-11-20T05:25:55;9.30;;;5.27;;
17361;SDS011;8798;51.938;4.348;2022-11-20T05:28:27;7.23;;;4.10;;
17361;SDS011;8798;51.938;4.348;2022-11-20T05:30:56;8.00;;;4.10;;
17361;SDS011;8798;51.938;4.348;2022-11-20T05:33:32;8.87;;;4.63;;
17361;SDS011;8798;51.938;4.348;2022-11-20T05:36:00;8.03;;;4.30;;
17361;SDS011;8798;51.938;4.348;2022-11-20T05:38:28;7.77;;;3.87;;
17361;SDS011;8798;51.938;4.348;2022-11-20T05:41:02;9.87;;;4.83;;
17361;SDS011;8798;51.938;4.348;2022-11-20T05:43:32;9.67;;;5.40;;
17361;SDS011;8798;51.938;4.348;2022-11-20T05:46:01;7.33;;;4.13;;
17361;SDS011;8798;51.938;4.348;2022-11-20T05:48:31;9.27;;;5.33;;
17361;SDS011;8798;51.938;4.348;2022-11-20T05:50:59;9.97;;;4.70;;
17361;SDS011;8798;51.938;4.348;2022-11-20T05:53:29;9.10;;;5.30;;
17361;SDS011;8798;51.938;4.348;2022-11-20T05:55:58;11.37;;;4.60;;
17361;SDS011;8798;51.938;4.348;2022-11-20T05:58:26;11.03;;;5.53;;
17361;SDS011;8798;51.938;4.348;2022-11-20T06:01:02;9.93;;;4.80;;
17361;SDS011;8798;51.938;4.348;2022-11-20T06:03:31;8.33;;;4.47;;
17361;SDS011;8798;51.938;4.348;2022-11-20T06:06:00;10.10;;;4.87;;
17361;SDS011;8798;51.938;4.348;2022-11-20T06:08:28;9.20;;;4.97;;
17361;SDS011;8798;51.938;4.348;2022-11-20T06:10:57;9.80;;;5.23;;
17361;SDS011;8798;51.938;4.348;2022-11-20T06:13:25;10.37;;;5.40;;
17361;SDS011;8798;51.938;4.348;2022-11-20T06:15:53;9.27;;;5.10;;
17361;SDS011;8798;51.938;4.348;2022-11-20T06:18:22;10.50;;;5.60;;
17361;SDS011;8798;51.938;4.348;2022-11-20T06:20:58;9.53;;;5.67;;
17361;SDS011;8798;51.938;4.348;2022-11-20T06:23:27;12.23;;;6.27;;
17361;SDS011;8798;51.938;4.348;2022-11-20T06:25:57;10.03;;;5.73;;
17361;SDS011;8798;51.938;4.348;2022-11-20T06:28:27;11.30;;;5.90;;
17361;SDS011;8798;51.938;4.348;2022-11-20T06:30:56;11.10;;;6.17;;
17361;SDS011;8798;51.938;4.348;2022-11-20T06:33:25;10.50;;;6.17;;
17361;SDS011;8798;51.938;4.348;2022-11-20T06:35:55;11.10;;;5.83;;
17361;SDS011;8798;51.938;4.348;2022-11-20T06:38:28;11.30;;;5.43;;
17361;SDS011;8798;51.938;4.348;2022-11-20T06:40:57;9.33;;;5.43;;
17361;SDS011;8798;51.938;4.348;2022-11-20T06:43:26;8.80;;;5.10;;
17361;SDS011;8798;51.938;4.348;2022-11-20T06:45:57;10.57;;;5.87;;
17361;SDS011;8798;51.938;4.348;2022-11-20T06:48:28;10.73;;;5.80;;
17361;SDS011;8798;51.938;4.348;2022-11-20T06:50:57;11.87;;;5.57;;
17361;SDS011;8798;51.938;4.348;2022-11-20T06:53:25;9.33;;;5.57;;
17361;SDS011;8798;51.938;4.348;2022-11-20T06:55:55;10.53;;;6.00;;
17361;SDS011;8798;51.938;4.348;2022-11-20T06:58:25;11.67;;;6.40;;
17361;SDS011;8798;51.938;4.348;2022-11-20T07:00:57;10.10;;;5.83;;
17361;SDS011;8798;51.938;4.348;2022-11-20T07:03:25;12.43;;;6.53;;
17361;SDS011;8798;51.938;4.348;2022-11-20T07:05:55;14.87;;;6.30;;
17361;SDS011;8798;51.938;4.348;2022-11-20T07:08:23;11.07;;;6.30;;
17361;SDS011;8798;51.938;4.348;2022-11-20T07:10:52;10.80;;;5.67;;
17361;SDS011;8798;51.938;4.348;2022-11-20T07:13:20;10.67;;;6.43;;
17361;SDS011;8798;51.938;4.348;2022-11-20T07:15:48;10.93;;;6.17;;
17361;SDS011;8798;51.938;4.348;2022-11-20T07:18:16;11.67;;;6.07;;
17361;SDS011;8798;51.938;4.348;2022-11-20T07:20:44;9.27;;;5.43;;
17361;SDS011;8798;51.938;4.348;2022-11-20T07:23:13;10.43;;;5.80;;
17361;SDS011;8798;51.938;4.348;2022-11-20T07:25:41;11.73;;;6.53;;
17361;SDS011;8798;51.938;4.348;2022-11-20T07:28:09;11.73;;;6.63;;
17361;SDS011;8798;51.938;4.348;2022-11-20T07:30:37;12.77;;;6.20;;
17361;SDS011;8798;51.938;4.348;2022-11-20T07:33:05;10.90;;;6.47;;
17361;SDS011;8798;51.938;4.348;2022-11-20T07:35:33;12.33;;;6.20;;
17361;SDS011;8798;51.938;4.348;2022-11-20T07:38:02;13.33;;;6.53;;
17361;SDS011;8798;51.938;4.348;2022-11-20T07:40:31;13.77;;;6.73;;
17361;SDS011;8798;51.938;4.348;2022-11-20T07:42:59;12.37;;;6.27;;
17361;SDS011;8798;51.938;4.348;2022-11-20T07:45:26;13.60;;;6.53;;
17361;SDS011;8798;51.938;4.348;2022-11-20T07:47:54;11.77;;;5.63;;
17361;SDS011;8798;51.938;4.348;2022-11-20T07:50:22;11.97;;;6.23;;
17361;SDS011;8798;51.938;4.348;2022-11-20T07:52:50;12.13;;;6.63;;
17361;SDS011;8798;51.938;4.348;2022-11-20T07:55:19;11.90;;;6.83;;
17361;SDS011;8798;51.938;4.348;2022-11-20T07:57:55;11.87;;;6.07;;
17361;SDS011;8798;51.938;4.348;2022-11-20T08:00:23;12.43;;;6.07;;
17361;SDS011;8798;51.938;4.348;2022-11-20T08:02:52;11.33;;;5.97;;
17361;SDS011;8798;51.938;4.348;2022-11-20T08:05:20;13.40;;;6.70;;
17361;SDS011;8798;51.938;4.348;2022-11-20T08:07:48;13.50;;;6.43;;
17361;SDS011;8798;51.938;4.348;2022-11-20T08:10:16;11.13;;;6.43;;
17361;SDS011;8798;51.938;4.348;2022-11-20T08:12:45;10.30;;;5.70;;
17361;SDS011;8798;51.938;4.348;2022-11-20T08:15:32;13.43;;;6.87;;
17361;SDS011;8798;51.938;4.348;2022-11-20T08:18:00;11.23;;;6.10;;
17361;SDS011;8798;51.938;4.348;2022-11-20T08:20:49;15.97;;;6.53;;
17361;SDS011;8798;51.938;4.348;2022-11-20T08:23:17;13.33;;;6.03;;
17361;SDS011;8798;51.938;4.348;2022-11-20T08:25:48;14.53;;;7.40;;
17361;SDS011;8798;51.938;4.348;2022-11-20T08:28:17;11.67;;;5.90;;
17361;SDS011;8798;51.938;4.348;2022-11-20T08:30:49;12.80;;;6.87;;
17361;SDS011;8798;51.938;4.348;2022-11-20T08:33:17;12.97;;;6.53;;
17361;SDS011;8798;51.938;4.348;2022-11-20T08:35:45;12.87;;;6.07;;
17361;SDS011;8798;51.938;4.348;2022-11-20T08:38:13;11.43;;;6.30;;
17361;SDS011;8798;51.938;4.348;2022-11-20T08:40:41;12.83;;;6.80;;
17361;SDS011;8798;51.938;4.348;2022-11-20T08:43:29;14.23;;;7.30;;
17361;SDS011;8798;51.938;4.348;2022-11-20T08:45:58;13.90;;;6.73;;
17361;SDS011;8798;51.938;4.348;2022-11-20T08:48:26;14.73;;;7.00;;
17361;SDS011;8798;51.938;4.348;2022-11-20T08:51:02;14.53;;;7.13;;
17361;SDS011;8798;51.938;4.348;2022-11-20T08:53:30;14.03;;;7.07;;
17361;SDS011;8798;51.938;4.348;2022-11-20T08:55:58;14.83;;;7.37;;
17361;SDS011;8798;51.938;4.348;2022-11-20T08:58:26;16.10;;;7.73;;
17361;SDS011;8798;51.938;4.348;2022-11-20T09:00:54;13.00;;;6.77;;
17361;SDS011;8798;51.938;4.348;2022-11-20T09:03:23;17.37;;;7.67;;
17361;SDS011;8798;51.938;4.348;2022-11-20T09:05:58;18.40;;;7.80;;
17361;SDS011;8798;51.938;4.348;2022-11-20T09:08:27;15.57;;;7.50;;
17361;SDS011;8798;51.938;4.348;2022-11-20T09:10:56;16.23;;;8.07;;
17361;SDS011;8798;51.938;4.348;2022-11-20T09:13:25;17.33;;;8.30;;
17361;SDS011;8798;51.938;4.348;2022-11-20T09:15:53;15.90;;;8.20;;
17361;SDS011;8798;51.938;4.348;2022-11-20T09:18:26;19.57;;;7.93;;
17361;SDS011;8798;51.938;4.348;2022-11-20T09:20:56;18.93;;;8.13;;
17361;SDS011;8798;51.938;4.348;2022-11-20T09:23:24;22.23;;;9.17;;
17361;SDS011;8798;51.938;4.348;2022-11-20T09:25:54;19.93;;;8.67;;
17361;SDS011;8798;51.938;4.348;2022-11-20T09:28:26;16.20;;;7.80;;
17361;SDS011;8798;51.938;4.348;2022-11-20T09:30:53;20.03;;;8.90;;
17361;SDS011;8798;51.938;4.348;2022-11-20T09:33:21;16.90;;;8.07;;
17361;SDS011;8798;51.938;4.348;2022-11-20T09:35:50;17.60;;;7.57;;
17361;SDS011;8798;51.938;4.348;2022-11-20T09:38:18;16.83;;;8.37;;
17361;SDS011;8798;51.938;4.348;2022-11-20T09:40:47;18.47;;;8.67;;
17361;SDS011;8798;51.938;4.348;2022-11-20T09:43:21;18.43;;;8.57;;
17361;SDS011;8798;51.938;4.348;2022-11-20T09:46:03;17.33;;;8.00;;
17361;SDS011;8798;51.938;4.348;2022-11-20T09:48:38;16.30;;;8.17;;
17361;SDS011;8798;51.938;4.348;2022-11-20T09:51:20;16.10;;;8.73;;
17361;SDS011;8798;51.938;4.348;2022-11-20T09:53:59;15.93;;;8.50;;
17361;SDS011;8798;51.938;4.348;2022-11-20T09:56:37;15.90;;;8.33;;
17361;SDS011;8798;51.938;4.348;2022-11-20T09:59:12;16.63;;;8.23;;
17361;SDS011;8798;51.938;4.348;2022-11-20T10:01:47;16.30;;;8.17;;
17361;SDS011;8798;51.938;4.348;2022-11-20T10:04:16;18.63;;;8.67;;
17361;SDS011;8798;51.938;4.348;2022-11-20T10:06:50;14.93;;;7.23;;
17361;SDS011;8798;51.938;4.348;2022-11-20T10:09:47;17.70;;;8.47;;
17361;SDS011;8798;51.938;4.348;2022-11-20T10:12:19;16.73;;;8.20;;
17361;SDS011;8798;51.938;4.348;2022-11-20T10:14:58;16.33;;;8.13;;
17361;SDS011;8798;51.938;4.348;2022-11-20T10:17:45;18.03;;;9.73;;
17361;SDS011;8798;51.938;4.348;2022-11-20T10:20:27;19.43;;;8.90;;
17361;SDS011;8798;51.938;4.348;2022-11-20T10:23:08;16.27;;;7.80;;
17361;SDS011;8798;51.938;4.348;2022-11-20T10:25:52;14.80;;;8.10;;
17361;SDS011;8798;51.938;4.348;2022-11-20T10:28:40;16.30;;;7.90;;
17361;SDS011;8798;51.938;4.348;2022-11-20T10:31:27;15.73;;;8.47;;
17361;SDS011;8798;51.938;4.348;2022-11-20T10:33:59;17.97;;;9.27;;
17361;SDS011;8798;51.938;4.348;2022-11-20T10:36:38;16.00;;;8.90;;
17361;SDS011;8798;51.938;4.348;2022-11-20T10:39:14;18.30;;;9.47;;
17361;SDS011;8798;51.938;4.348;2022-11-20T10:41:50;18.57;;;8.63;;
17361;SDS011;8798;51.938;4.348;2022-11-20T10:44:21;15.53;;;8.30;;
17361;SDS011;8798;51.938;4.348;2022-11-20T10:47:11;20.90;;;9.03;;
17361;SDS011;8798;51.938;4.348;2022-11-20T10:49:41;18.50;;;8.80;;
17361;SDS011;8798;51.938;4.348;2022-11-20T10:52:11;18.10;;;9.40;;
17361;SDS011;8798;51.938;4.348;2022-11-20T10:54:48;18.23;;;8.80;;
17361;SDS011;8798;51.938;4.348;2022-11-20T10:57:27;20.67;;;9.57;;
17361;SDS011;8798;51.938;4.348;2022-11-20T11:00:13;19.97;;;9.37;;
17361;SDS011;8798;51.938;4.348;2022-11-20T11:02:44;20.97;;;9.97;;
17361;SDS011;8798;51.938;4.348;2022-11-20T11:05:18;20.87;;;9.63;;
17361;SDS011;8798;51.938;4.348;2022-11-20T11:07:53;22.13;;;9.87;;
17361;SDS011;8798;51.938;4.348;2022-11-20T11:10:26;25.83;;;10.63;;
17361;SDS011;8798;51.938;4.348;2022-11-20T11:12:59;25.73;;;10.50;;
17361;SDS011;8798;51.938;4.348;2022-11-20T11:15:28;23.33;;;10.63;;
17361;SDS011;8798;51.938;4.348;2022-11-20T11:17:57;26.93;;;10.60;;
17361;SDS011;8798;51.938;4.348;2022-11-20T11:20:25;28.90;;;12.30;;
17361;SDS011;8798;51.938;4.348;2022-11-20T11:22:54;22.73;;;10.57;;
17361;SDS011;8798;51.938;4.348;2022-11-20T11:25:25;23.30;;;10.67;;
17361;SDS011;8798;51.938;4.348;2022-11-20T11:27:56;24.27;;;10.77;;
17361;SDS011;8798;51.938;4.348;2022-11-20T11:30:26;25.47;;;10.20;;
17361;SDS011;8798;51.938;4.348;2022-11-20T11:33:03;21.67;;;10.53;;
17361;SDS011;8798;51.938;4.348;2022-11-20T11:35:38;23.40;;;9.90;;
17361;SDS011;8798;51.938;4.348;2022-11-20T11:38:28;25.17;;;10.73;;
17361;SDS011;8798;51.938;4.348;2022-11-20T11:40:59;26.80;;;11.17;;
17361;SDS011;8798;51.938;4.348;2022-11-20T11:43:29;26.20;;;11.33;;
17361;SDS011;8798;51.938;4.348;2022-11-20T11:49:11;21.87;;;9.00;;
17361;SDS011;8798;51.938;4.348;2022-11-20T11:51:56;22.90;;;10.20;;
17361;SDS011;8798;51.938;4.348;2022-11-20T11:54:30;21.80;;;10.50;;
17361;SDS011;8798;51.938;4.348;2022-11-20T11:57:12;20.20;;;9.63;;
17361;SDS011;8798;51.938;4.348;2022-11-20T11:59:51;21.97;;;10.80;;
17361;SDS011;8798;51.938;4.348;2022-11-20T12:02:35;19.30;;;9.67;;
17361;SDS011;8798;51.938;4.348;2022-11-20T12:05:10;22.17;;;10.20;;
17361;SDS011;8798;51.938;4.348;2022-11-20T12:07:45;22.40;;;10.27;;
17361;SDS011;8798;51.938;4.348;2022-11-20T12:10:17;23.93;;;10.60;;
17361;SDS011;8798;51.938;4.348;2022-11-20T12:12:52;24.67;;;11.50;;
17361;SDS011;8798;51.938;4.348;2022-11-20T12:15:29;26.23;;;10.47;;
17361;SDS011;8798;51.938;4.348;2022-11-20T12:17:58;20.33;;;9.57;;
17361;SDS011;8798;51.938;4.348;2022-11-20T12:20:28;21.80;;;10.33;;
17361;SDS011;8798;51.938;4.348;2022-11-20T12:23:14;23.13;;;10.13;;
17361;SDS011;8798;51.938;4.348;2022-11-20T12:25:52;21.77;;;10.43;;
17361;SDS011;8798;51.938;4.348;2022-11-20T12:28:31;21.87;;;10.57;;
17361;SDS011;8798;51.938;4.348;2022-11-20T12:34:18;27.60;;;11.20;;
17361;SDS011;8798;51.938;4.348;2022-11-20T12:37:08;21.83;;;9.60;;
17361;SDS011;8798;51.938;4.348;2022-11-20T12:39:42;24.67;;;10.00;;
17361;SDS011;8798;51.938;4.348;2022-11-20T12:42:19;23.97;;;11.07;;
17361;SDS011;8798;51.938;4.348;2022-11-20T12:48:23;23.07;;;10.13;;
17361;SDS011;8798;51.938;4.348;2022-11-20T12:51:24;30.60;;;11.20;;
17361;SDS011;8798;51.938;4.348;2022-11-20T12:57:29;26.53;;;11.30;;
17361;SDS011;8798;51.938;4.348;2022-11-20T13:00:08;28.67;;;11.37;;
17361;SDS011;8798;51.938;4.348;2022-11-20T13:05:37;29.00;;;11.77;;
17361;SDS011;8798;51.938;4.348;2022-11-20T13:08:18;23.73;;;10.37;;
17361;SDS011;8798;51.938;4.348;2022-11-20T13:10:51;23.73;;;10.50;;
17361;SDS011;8798;51.938;4.348;2022-11-20T13:13:29;23.03;;;10.63;;
17361;SDS011;8798;51.938;4.348;2022-11-20T13:16:08;24.07;;;10.53;;
17361;SDS011;8798;51.938;4.348;2022-11-20T13:18:43;24.60;;;10.53;;
17361;SDS011;8798;51.938;4.348;2022-11-20T13:21:15;23.67;;;10.40;;
17361;SDS011;8798;51.938;4.348;2022-11-20T13:23:44;27.60;;;10.80;;
17361;SDS011;8798;51.938;4.348;2022-11-20T13:26:16;22.10;;;10.43;;
17361;SDS011;8798;51.938;4.348;2022-11-20T13:28:46;22.57;;;9.67;;
17361;SDS011;8798;51.938;4.348;2022-11-20T13:31:24;24.23;;;10.10;;
17361;SDS011;8798;51.938;4.348;2022-11-20T13:33:58;26.77;;;9.97;;
17361;SDS011;8798;51.938;4.348;2022-11-20T13:36:29;25.20;;;10.73;;
17361;SDS011;8798;51.938;4.348;2022-11-20T13:38:58;24.07;;;11.07;;
17361;SDS011;8798;51.938;4.348;2022-11-20T13:41:27;27.67;;;11.17;;
17361;SDS011;8798;51.938;4.348;2022-11-20T13:43:58;25.10;;;10.77;;
17361;SDS011;8798;51.938;4.348;2022-11-20T13:46:35;24.10;;;10.27;;
17361;SDS011;8798;51.938;4.348;2022-11-20T13:49:08;25.70;;;10.87;;
17361;SDS011;8798;51.938;4.348;2022-11-20T13:51:44;25.30;;;10.73;;
17361;SDS011;8798;51.938;4.348;2022-11-20T13:54:20;23.63;;;10.70;;
17361;SDS011;8798;51.938;4.348;2022-11-20T13:57:06;25.23;;;11.07;;
17361;SDS011;8798;51.938;4.348;2022-11-20T13:59:52;27.20;;;10.87;;
17361;SDS011;8798;51.938;4.348;2022-11-20T14:02:25;25.60;;;10.83;;
17361;SDS011;8798;51.938;4.348;2022-11-20T14:04:57;26.17;;;11.00;;
17361;SDS011;8798;51.938;4.348;2022-11-20T14:07:31;24.33;;;11.03;;
17361;SDS011;8798;51.938;4.348;2022-11-20T14:10:04;21.90;;;10.10;;
17361;SDS011;8798;51.938;4.348;2022-11-20T14:12:33;28.67;;;11.97;;
17361;SDS011;8798;51.938;4.348;2022-11-20T14:15:03;22.07;;;10.23;;
17361;SDS011;8798;51.938;4.348;2022-11-20T14:17:31;27.73;;;11.87;;
17361;SDS011;8798;51.938;4.348;2022-11-20T14:20:03;23.90;;;10.87;;
17361;SDS011;8798;51.938;4.348;2022-11-20T14:22:33;26.70;;;11.43;;
17361;SDS011;8798;51.938;4.348;2022-11-20T14:25:03;25.40;;;11.47;;
17361;SDS011;8798;51.938;4.348;2022-11-20T14:27:33;25.40;;;11.07;;
17361;SDS011;8798;51.938;4.348;2022-11-20T14:30:04;26.00;;;11.30;;
17361;SDS011;8798;51.938;4.348;2022-11-20T14:32:33;27.03;;;11.10;;
17361;SDS011;8798;51.938;4.348;2022-11-20T14:35:06;23.40;;;10.70;;
17361;SDS011;8798;51.938;4.348;2022-11-20T14:37:36;28.43;;;11.20;;
17361;SDS011;8798;51.938;4.348;2022-11-20T14:40:21;23.77;;;10.63;;
17361;SDS011;8798;51.938;4.348;2022-11-20T14:42:51;25.60;;;10.27;;
17361;SDS011;8798;51.938;4.348;2022-11-20T14:45:19;20.97;;;10.67;;
17361;SDS011;8798;51.938;4.348;2022-11-20T14:47:49;23.63;;;11.33;;
17361;SDS011;8798;51.938;4.348;2022-11-20T14:50:21;23.00;;;10.33;;
17361;SDS011;8798;51.938;4.348;2022-11-20T14:52:51;23.50;;;10.20;;
17361;SDS011;8798;51.938;4.348;2022-11-20T14:55:27;21.53;;;9.90;;
17361;SDS011;8798;51.938;4.348;2022-11-20T14:57:57;23.40;;;10.70;;
17361;SDS011;8798;51.938;4.348;2022-11-20T15:00:27;21.47;;;10.00;;
17361;SDS011;8798;51.938;4.348;2022-11-20T15:02:55;21.33;;;9.27;;
17361;SDS011;8798;51.938;4.348;2022-11-20T15:05:25;20.33;;;10.33;;
17361;SDS011;8798;51.938;4.348;2022-11-20T15:08:10;21.10;;;9.40;;
17361;SDS011;8798;51.938;4.348;2022-11-20T15:10:44;19.13;;;8.80;;
17361;SDS011;8798;51.938;4.348;2022-11-20T15:13:14;20.70;;;9.40;;
17361;SDS011;8798;51.938;4.348;2022-11-20T15:15:46;19.30;;;8.77;;
17361;SDS011;8798;51.938;4.348;2022-11-20T15:18:16;16.03;;;7.90;;
17361;SDS011;8798;51.938;4.348;2022-11-20T15:20:48;20.77;;;8.93;;
17361;SDS011;8798;51.938;4.348;2022-11-20T15:23:16;19.27;;;9.23;;
17361;SDS011;8798;51.938;4.348;2022-11-20T15:25:46;16.93;;;7.67;;
17361;SDS011;8798;51.938;4.348;2022-11-20T15:28:16;18.97;;;8.23;;
17361;SDS011;8798;51.938;4.348;2022-11-20T15:30:49;16.80;;;8.50;;
17361;SDS011;8798;51.938;4.348;2022-11-20T15:33:17;16.93;;;7.67;;